Time;durP1;ratioP1;P1;durP2;ratioP2;P2;SDS_P1;SDS_P2;PMS_P1;PMS_P2;Temp;Humidity;BMP_temperature;BMP_pressure;BME280_temperature;BME280_humidity;BME280_pressure;Samples;Min_cycle;Max_cycle;Signal;HPM_P1;HPM_P2
2022/11/11 00:00:38;;;;;;;23.87;17.73;;;;;;;20.86;43.79;101766.89;1790699;79;21018;-79
2022/11/11 00:03:04;;;;;;;25.80;17.90;;;;;;;20.85;43.79;101766.07;1790593;79;21228;-79
2022/11/11 00:05:32;;;;;;;30.02;18.45;;;;;;;20.85;43.77;101776.30;1790699;80;21045;-78
2022/11/11 00:07:58;;;;;;;23.85;17.85;;;;;;;20.85;43.76;101769.39;1790457;79;21002;-78
2022/11/11 00:10:31;;;;;;;28.23;18.73;;;;;;;20.83;43.76;101775.23;1790331;80;21049;-78
2022/11/11 00:13:00;;;;;;;27.95;18.85;;;;;;;20.83;43.74;101772.47;1790701;80;20982;-79
2022/11/11 00:15:37;;;;;;;23.35;16.85;;;;;;;20.82;43.75;101770.81;1790394;79;21429;-79
2022/11/11 00:26:19;;;;;;;27.62;18.55;;;;;;;20.80;43.67;101769.45;1790586;80;21094;-79
2022/11/11 00:28:45;;;;;;;25.12;17.67;;;;;;;20.80;43.67;101776.36;1790626;80;21138;-79
2022/11/11 00:31:12;;;;;;;25.27;18.42;;;;;;;20.80;43.67;101779.13;1790574;79;21078;-79
2022/11/11 00:33:38;;;;;;;24.45;17.77;;;;;;;20.80;43.66;101770.27;1790472;80;21485;-79
2022/11/11 00:36:06;;;;;;;26.27;18.25;;;;;;;20.79;43.66;101773.36;1769124;80;21037;-79
2022/11/11 00:38:44;;;;;;;26.33;17.90;;;;;;;20.80;43.66;101773.04;1790589;80;21446;-79
2022/11/11 00:41:15;;;;;;;25.60;17.92;;;;;;;20.80;43.67;101768.89;1772030;80;22048;-78
2022/11/11 00:43:41;;;;;;;27.07;18.25;;;;;;;20.79;43.66;101768.63;1789711;78;26794;-78
2022/11/11 00:51:43;;;;;;;25.92;18.07;;;;;;;20.79;43.66;101758.94;1790732;79;21024;-78
2022/11/11 00:54:09;;;;;;;27.75;18.52;;;;;;;20.79;43.66;101760.91;1790318;79;21288;-78
2022/11/11 00:56:36;;;;;;;24.47;17.32;;;;;;;20.78;43.67;101755.94;1790838;79;21478;-78
2022/11/11 00:59:06;;;;;;;26.02;18.00;;;;;;;20.78;43.68;101759.26;1790301;80;32628;-78
2022/11/11 01:01:33;;;;;;;24.65;18.52;;;;;;;20.78;43.67;101757.31;1789849;78;21039;-78
2022/11/11 01:04:00;;;;;;;28.40;17.17;;;;;;;20.78;43.70;101754.55;1790711;80;21028;-79
2022/11/11 01:06:26;;;;;;;27.93;18.30;;;;;;;20.77;43.69;101755.66;1790558;79;21113;-79
2022/11/11 01:08:53;;;;;;;27.07;18.17;;;;;;;20.78;43.71;101753.73;1790409;80;20980;-79
2022/11/11 01:11:21;;;;;;;25.30;18.30;;;;;;;20.78;43.71;101752.34;1790471;79;21042;-78
2022/11/11 01:13:47;;;;;;;27.00;18.10;;;;;;;20.79;43.67;101759.53;1790324;79;21047;-78
2022/11/11 01:16:17;;;;;;;26.10;18.35;;;;;;;20.77;43.69;101752.90;1768543;80;21616;-77
2022/11/11 01:18:43;;;;;;;24.63;17.48;;;;;;;20.78;43.70;101753.73;1790507;79;21423;-78
2022/11/11 01:21:16;;;;;;;26.97;18.90;;;;;;;20.77;43.69;101752.90;1770075;80;21117;-78
2022/11/11 01:23:44;;;;;;;26.23;18.00;;;;;;;20.77;43.71;101750.13;1748616;80;21453;-78
2022/11/11 01:26:22;;;;;;;24.95;17.60;;;;;;;20.77;43.66;101750.69;1793317;80;21333;-79
2022/11/11 01:28:51;;;;;;;25.40;17.65;;;;;;;20.77;43.68;101750.13;1793260;80;21031;-79
2022/11/11 01:31:19;;;;;;;25.43;17.60;;;;;;;20.75;43.67;101750.17;1792822;78;21332;-79
2022/11/11 01:33:46;;;;;;;28.00;18.05;;;;;;;20.76;43.68;101751.25;1793348;80;21015;-78
2022/11/11 01:36:15;;;;;;;25.35;18.37;;;;;;;20.76;43.67;101755.95;1793095;80;21070;-78
2022/11/11 01:38:41;;;;;;;27.10;18.77;;;;;;;20.75;43.66;101762.03;1793453;79;21011;-79
2022/11/11 01:43:55;;;;;;;25.88;18.23;;;;;;;20.76;43.66;101743.50;1793198;80;21210;-79
2022/11/11 01:46:59;;;;;;;27.73;18.52;;;;;;;20.76;43.66;101750.42;1793587;80;21457;-78
2022/11/11 01:49:36;;;;;;;27.37;18.35;;;;;;;20.75;43.67;101741.88;1793170;80;21035;-80
2022/11/11 01:52:20;;;;;;;25.48;18.70;;;;;;;20.74;43.64;101746.59;1793488;80;21045;-79
2022/11/11 01:55:20;;;;;;;25.70;18.62;;;;;;;20.73;43.64;101756.00;1793146;80;21039;-78
2022/11/11 01:58:04;;;;;;;27.17;18.45;;;;;;;20.73;43.63;101762.91;1793336;79;21154;-79
2022/11/11 02:00:30;;;;;;;24.15;17.87;;;;;;;20.72;43.62;101759.87;1791862;78;21074;-78
2022/11/11 02:03:05;;;;;;;25.32;17.90;;;;;;;20.72;43.63;101764.02;1793599;79;21481;-78
2022/11/11 02:05:41;;;;;;;25.27;17.92;;;;;;;20.71;43.65;101762.36;1793365;80;21154;-79
2022/11/11 02:08:15;;;;;;;27.40;18.27;;;;;;;20.71;43.64;101771.25;1793614;78;20998;-78
2022/11/11 02:10:44;;;;;;;27.87;18.32;;;;;;;20.71;43.65;101785.87;1793526;79;21194;-78
2022/11/11 02:15:59;;;;;;;26.45;18.30;;;;;;;20.70;43.63;101777.33;1793358;80;21086;-79
2022/11/11 02:18:26;;;;;;;25.23;18.00;;;;;;;20.69;43.62;101777.62;1793883;80;21470;-78
2022/11/11 02:20:52;;;;;;;28.05;18.73;;;;;;;20.70;43.62;101784.80;1793527;80;21011;-79
2022/11/11 02:23:36;;;;;;;26.05;18.40;;;;;;;20.70;43.63;101786.19;1791818;79;21174;-79
2022/11/11 02:26:03;;;;;;;24.32;18.77;;;;;;;20.69;43.63;101784.53;1788350;80;21019;-78
2022/11/11 02:28:29;;;;;;;27.25;18.42;;;;;;;20.69;43.60;101785.91;1788183;80;21064;-78
2022/11/11 02:30:55;;;;;;;26.10;19.02;;;;;;;20.68;43.62;101801.67;1788463;80;21491;-79
2022/11/11 02:33:21;;;;;;;26.15;18.95;;;;;;;20.69;43.60;101819.09;1768456;80;21082;-79
2022/11/11 02:35:55;;;;;;;26.52;18.30;;;;;;;20.69;43.62;101836.52;1788129;80;21162;-78
2022/11/11 02:38:22;;;;;;;27.87;18.98;;;;;;;20.69;43.63;101833.75;1768615;80;21510;-78
2022/11/11 02:43:33;;;;;;;29.40;19.52;;;;;;;20.70;43.61;101841.49;1788096;80;21023;-79
2022/11/11 02:46:02;;;;;;;23.92;18.02;;;;;;;20.68;43.59;101843.16;1788071;78;21454;-79
2022/11/11 02:48:29;;;;;;;24.43;17.82;;;;;;;20.67;43.59;101841.50;1788195;80;21391;-79
2022/11/11 02:50:55;;;;;;;26.12;17.65;;;;;;;20.69;43.60;101844.81;1788068;80;20981;-78
2022/11/11 02:53:21;;;;;;;27.90;18.52;;;;;;;20.69;43.59;101853.11;1788193;80;21036;-79
2022/11/11 02:55:48;;;;;;;26.97;19.05;;;;;;;20.69;43.59;101853.11;1788280;80;21051;-79
2022/11/11 02:58:14;;;;;;;24.30;18.73;;;;;;;20.69;43.58;101850.89;1767909;80;21012;-79
2022/11/11 03:00:41;;;;;;;24.37;17.67;;;;;;;20.68;43.57;101854.77;1787950;80;21141;-79
2022/11/11 03:03:08;;;;;;;27.10;19.12;;;;;;;20.68;43.57;101855.60;1768104;80;21035;-79
2022/11/11 03:05:35;;;;;;;23.80;17.77;;;;;;;20.68;43.57;101855.60;1787529;80;21070;-79
2022/11/11 03:08:01;;;;;;;27.17;18.35;;;;;;;20.68;43.58;101854.22;1787923;79;21082;-78
2022/11/11 03:10:28;;;;;;;26.02;18.87;;;;;;;20.67;43.56;101851.18;1787854;80;21110;-78
2022/11/11 03:13:01;;;;;;;24.63;17.37;;;;;;;20.68;43.56;101852.00;1787394;80;21446;-78
2022/11/11 03:15:28;;;;;;;27.35;18.30;;;;;;;20.68;43.56;101844.54;1787853;80;20985;-80
2022/11/11 03:17:54;;;;;;;25.00;18.62;;;;;;;20.68;43.56;101861.69;1787609;79;20994;-78
2022/11/11 03:23:11;;;;;;;25.65;18.35;;;;;;;20.68;43.56;101858.92;1773699;79;21343;-79
2022/11/11 03:25:44;;;;;;;26.23;18.00;;;;;;;20.66;43.54;101859.23;1776636;79;21514;-78
2022/11/11 03:28:13;;;;;;;26.15;18.75;;;;;;;20.65;43.57;101857.58;1795200;79;21421;-78
2022/11/11 03:30:41;;;;;;;31.62;18.50;;;;;;;20.65;43.58;101860.34;1766656;79;21110;-79
2022/11/11 03:33:08;;;;;;;27.95;18.12;;;;;;;20.67;43.55;101866.94;1766609;81;20992;-78
2022/11/11 03:35:34;;;;;;;26.65;19.20;;;;;;;20.66;43.58;101863.94;1766996;79;21035;-78
2022/11/11 03:40:47;;;;;;;25.77;18.85;;;;;;;20.65;43.59;101880.25;1766338;79;21040;-78
2022/11/11 03:43:15;;;;;;;25.60;18.25;;;;;;;20.65;43.58;101875.55;1766761;79;21059;-78
2022/11/11 03:45:42;;;;;;;27.05;18.95;;;;;;;20.66;43.60;101881.91;1727652;81;21100;-79
2022/11/11 03:48:09;;;;;;;23.90;17.98;;;;;;;20.65;43.58;101883.02;1708608;83;21024;-78
2022/11/11 03:50:35;;;;;;;24.67;18.17;;;;;;;20.66;43.59;101884.67;1726921;81;21104;-79
2022/11/11 03:53:01;;;;;;;25.10;18.15;;;;;;;20.65;43.59;101887.99;1727600;81;21431;-78
2022/11/11 03:55:28;;;;;;;25.62;18.07;;;;;;;20.65;43.59;101889.38;1727675;81;21044;-79
2022/11/11 03:57:54;;;;;;;23.70;18.20;;;;;;;20.65;43.60;101889.38;1726999;81;21087;-79
2022/11/11 04:00:22;;;;;;;25.25;17.65;;;;;;;20.65;43.60;101889.93;1727727;82;22306;-79
2022/11/11 04:11:08;;;;;;;27.25;18.32;;;;;;;20.64;43.61;101896.02;1727405;81;21504;-79
2022/11/11 04:16:18;;;;;;;24.92;18.35;;;;;;;20.63;43.63;101898.50;1675864;84;21114;-79
2022/11/11 04:21:44;;;;;;;25.50;17.50;;;;;;;20.62;43.67;101899.64;1675045;83;21124;-79
2022/11/11 04:27:00;;;;;;;26.70;18.02;;;;;;;20.62;43.66;101898.81;1698560;84;21532;-79
2022/11/11 04:29:28;;;;;;;25.92;18.98;;;;;;;20.62;43.66;101906.56;1710720;82;21065;-79
2022/11/11 04:34:52;;;;;;;23.75;17.77;;;;;;;20.62;43.67;101916.23;1714937;83;21463;-79
2022/11/11 04:37:20;;;;;;;23.40;17.60;;;;;;;20.61;43.64;101907.67;1710666;82;21025;-79
2022/11/11 04:42:38;;;;;;;24.85;18.35;;;;;;;20.62;43.64;101909.88;1714758;81;21195;-79
2022/11/11 04:48:09;;;;;;;25.23;17.95;;;;;;;20.61;43.66;101915.96;1706106;82;21076;-79
2022/11/11 04:50:40;;;;;;;21.62;17.07;;;;;;;20.62;43.63;101916.79;1765647;81;21055;-79
2022/11/11 04:53:09;;;;;;;25.32;17.85;;;;;;;20.64;43.62;101925.05;1744967;81;21094;-79
2022/11/11 04:58:23;;;;;;;25.00;16.85;;;;;;;20.70;43.61;101931.36;1765027;81;21604;-79
2022/11/11 05:00:50;;;;;;;23.25;15.93;;;;;;;20.75;43.58;101931.33;1747122;81;21052;-79
2022/11/11 05:03:20;;;;;;;21.00;14.40;;;;;;;20.80;43.56;101939.55;1767072;79;21458;-79
2022/11/11 05:08:57;;;;;;;19.65;14.18;;;;;;;20.93;43.52;101943.84;1767070;79;21556;-80
2022/11/11 05:11:28;;;;;;;22.77;14.40;;;;;;;21.02;43.45;101948.17;1763842;79;21424;-79
2022/11/11 05:22:32;;;;;;;17.17;12.03;;;;;;;21.43;43.20;101963.78;1727503;82;21139;-79
2022/11/11 05:27:43;;;;;;;18.80;13.15;;;;;;;21.65;43.03;101972.92;1710161;82;21029;-79
2022/11/11 05:30:11;;;;;;;18.90;13.18;;;;;;;21.76;42.94;101980.00;1726163;81;21492;-79
2022/11/11 05:32:38;;;;;;;18.90;12.50;;;;;;;21.86;42.84;101985.39;1725206;81;21080;-80
2022/11/11 05:35:05;;;;;;;18.17;12.82;;;;;;;21.97;42.73;101991.10;1711487;81;21176;-80
2022/11/11 05:37:32;;;;;;;23.38;12.60;;;;;;;22.08;42.65;101999.52;1727370;81;21075;-77
2022/11/11 05:39:58;;;;;;;22.00;13.28;;;;;;;22.17;42.51;101999.12;1726380;81;21052;-78
2022/11/11 05:42:25;;;;;;;19.52;12.63;;;;;;;22.24;42.41;102003.72;1703692;82;21066;-78
2022/11/11 05:44:51;;;;;;;18.05;12.47;;;;;;;22.30;42.31;101996.16;1681407;83;21084;-79
2022/11/11 05:47:17;;;;;;;21.33;13.35;;;;;;;22.38;42.22;101996.86;1711356;81;21110;-83
2022/11/11 05:49:45;;;;;;;17.48;12.13;;;;;;;22.45;42.13;102004.81;1743227;81;21005;-81
2022/11/11 05:52:17;;;;;;;20.05;12.18;;;;;;;22.48;42.07;102002.26;1764814;79;21426;-81
2022/11/11 05:54:44;;;;;;;24.32;12.78;;;;;;;22.54;41.99;102002.42;1727025;81;22489;-80
2022/11/11 05:57:11;;;;;;;25.82;12.95;;;;;;;22.57;41.92;102006.00;1721604;81;21521;-80
2022/11/11 05:59:37;;;;;;;26.50;13.13;;;;;;;22.62;41.86;102014.21;1687858;83;22569;-80
2022/11/11 06:02:05;;;;;;;24.02;12.47;;;;;;;22.64;41.86;102018.91;1690733;82;21072;-82
2022/11/11 06:04:37;;;;;;;20.82;12.43;;;;;;;22.67;41.97;102018.85;1758222;79;21058;-83
2022/11/11 06:07:04;;;;;;;21.25;11.75;;;;;;;22.67;42.09;102028.56;1762761;79;21637;-84
2022/11/11 06:09:30;;;;;;;20.05;11.57;;;;;;;22.71;42.21;102026.86;1752516;79;20988;-82
2022/11/11 06:11:56;;;;;;;20.57;11.43;;;;;;;22.71;42.30;102024.09;1713145;81;21326;-82
2022/11/11 06:14:23;;;;;;;18.05;11.38;;;;;;;22.71;42.40;102036.02;1704694;82;21084;-86
2022/11/11 06:16:49;;;;;;;20.02;10.40;;;;;;;22.74;42.47;102033.22;1757137;79;21037;-86
2022/11/11 06:19:16;;;;;;;18.40;10.88;;;;;;;22.77;42.53;102038.16;1754292;79;21125;-83
2022/11/11 06:21:57;;;;;;;17.98;10.35;;;;;;;22.80;42.60;102043.64;1757737;79;21629;-86
2022/11/11 06:24:29;;;;;;;17.62;10.58;;;;;;;22.82;42.65;102051.12;1769830;79;21157;-80
2022/11/11 06:26:56;;;;;;;17.40;10.35;;;;;;;22.84;42.70;102061.33;1766306;79;21087;-79
2022/11/11 06:29:24;;;;;;;18.52;9.78;;;;;;;22.86;42.71;102050.21;1752867;80;21143;-82
2022/11/11 06:31:50;;;;;;;22.48;10.13;;;;;;;22.89;42.74;102056.53;1753846;80;21047;-86
2022/11/11 06:34:17;;;;;;;19.92;10.43;;;;;;;22.91;42.76;102058.45;1745949;80;21079;-85
2022/11/11 06:36:43;;;;;;;17.12;10.55;;;;;;;22.92;42.83;102067.58;1743567;80;21934;-82
2022/11/11 06:39:09;;;;;;;22.02;10.95;;;;;;;22.93;42.81;102077.00;1741868;80;21149;-82
2022/11/11 06:41:36;;;;;;;17.07;10.45;;;;;;;22.93;42.72;102074.22;1745716;80;21022;-83
2022/11/11 06:44:02;;;;;;;13.72;10.18;;;;;;;22.94;42.65;102066.73;1750848;80;21517;-87
2022/11/11 06:46:29;;;;;;;17.35;10.13;;;;;;;22.95;42.52;102074.77;1720454;82;21112;-83
2022/11/11 06:48:57;;;;;;;17.23;10.30;;;;;;;22.96;42.40;102072.78;1723049;80;21166;-86
2022/11/11 06:51:23;;;;;;;19.20;10.00;;;;;;;22.96;42.39;102086.09;1680222;83;21143;-81
2022/11/11 06:53:53;;;;;;;19.10;10.43;;;;;;;22.94;42.47;102090.31;1691035;82;21116;-82
2022/11/11 06:56:18;;;;;;;24.10;11.35;;;;;;;22.95;42.60;102089.20;1657045;84;21100;-84
2022/11/11 06:58:44;;;;;;;17.12;9.68;;;;;;;22.95;42.77;102090.59;1758176;80;21074;-83
2022/11/11 07:01:12;;;;;;;19.92;9.85;;;;;;;22.97;42.98;102091.09;1751777;80;21050;-84
2022/11/11 07:03:40;;;;;;;24.20;10.05;;;;;;;22.98;43.22;102092.19;1674771;82;21086;-87
2022/11/11 07:06:06;;;;;;;30.52;10.13;;;;;;;23.00;43.43;102088.53;1693592;82;21049;-88
2022/11/11 07:08:33;;;;;;;21.17;10.28;;;;;;;22.99;43.45;102093.84;1691496;82;21055;-85
2022/11/11 07:11:01;;;;;;;19.52;9.35;;;;;;;23.02;43.54;102097.39;1698471;82;21573;-86
2022/11/11 07:13:27;;;;;;;17.80;8.65;;;;;;;23.03;43.63;102100.99;1686421;81;21556;-83
2022/11/11 07:15:54;;;;;;;21.23;9.40;;;;;;;23.04;43.76;102097.89;1672462;83;21487;-92
2022/11/11 07:18:20;;;;;;;17.45;9.40;;;;;;;23.06;43.85;102105.94;1670157;84;21162;-87
2022/11/11 07:20:47;;;;;;;22.13;9.25;;;;;;;23.08;43.93;102105.91;1734688;80;21356;-88
2022/11/11 07:23:14;;;;;;;19.62;9.45;;;;;;;23.11;43.99;102105.29;1716578;81;21060;-87
2022/11/11 07:25:41;;;;;;;19.73;9.30;;;;;;;23.12;44.03;102113.89;1705151;82;21117;-82
2022/11/11 07:28:08;;;;;;;17.37;8.95;;;;;;;23.15;44.05;102111.88;1690827;83;21370;-83
2022/11/11 07:30:36;;;;;;;20.27;8.80;;;;;;;23.17;44.05;102124.05;1716961;80;21522;-80
2022/11/11 07:33:03;;;;;;;11.18;7.58;;;;;;;23.17;43.94;102115.16;1721632;80;21142;-82
2022/11/11 07:35:29;;;;;;;11.88;7.28;;;;;;;23.19;43.86;102109.31;1708610;82;21024;-86
2022/11/11 07:37:55;;;;;;;11.78;6.42;;;;;;;23.19;43.79;102117.65;1709698;82;21134;-83
2022/11/11 07:40:22;;;;;;;11.55;6.70;;;;;;;23.18;43.72;102120.98;1685024;82;21076;-85
2022/11/11 07:42:48;;;;;;;12.15;5.58;;;;;;;23.18;43.68;102117.38;1707793;82;21044;-83
2022/11/11 07:45:16;;;;;;;10.25;5.62;;;;;;;23.20;43.59;102124.86;1758098;80;21072;-90
2022/11/11 07:47:43;;;;;;;11.20;6.37;;;;;;;23.20;43.52;102115.97;1715769;80;21621;-82
2022/11/11 07:50:10;;;;;;;18.15;6.65;;;;;;;23.21;43.46;102124.53;1708142;82;21177;-83
2022/11/11 07:52:36;;;;;;;17.12;6.58;;;;;;;23.25;43.57;102126.73;1715761;81;22142;-84
2022/11/11 07:55:04;;;;;;;12.63;6.03;;;;;;;23.27;43.66;102126.67;1756623;80;21657;-80
2022/11/11 07:57:31;;;;;;;18.55;6.33;;;;;;;23.25;43.76;102128.11;1751992;80;21053;-84
2022/11/11 07:59:57;;;;;;;12.68;5.72;;;;;;;23.24;43.84;102137.00;1755666;80;21519;-80
2022/11/11 08:02:26;;;;;;;19.40;6.12;;;;;;;23.23;44.02;102138.95;1759281;78;22402;-84
2022/11/11 08:04:52;;;;;;;10.58;5.80;;;;;;;23.22;44.13;102137.30;1713746;82;21365;-85
2022/11/11 08:07:24;;;;;;;9.68;5.45;;;;;;;23.23;44.23;102146.45;1704875;82;21042;-87
2022/11/11 08:09:51;;;;;;;18.90;6.45;;;;;;;23.22;44.46;102148.41;1704210;82;21086;-86
2022/11/11 08:15:04;;;;;;;14.10;5.80;;;;;;;23.27;44.89;102159.16;1689030;83;21597;-80
2022/11/11 08:17:30;;;;;;;13.62;5.35;;;;;;;23.30;44.95;102155.80;1723956;80;21497;-83
2022/11/11 08:19:57;;;;;;;18.27;5.53;;;;;;;23.32;45.06;102157.13;1722253;82;21525;-83
2022/11/11 08:22:23;;;;;;;16.70;6.45;;;;;;;23.35;45.22;102162.07;1684992;83;21154;-79
2022/11/11 08:24:50;;;;;;;18.95;6.62;;;;;;;23.39;45.33;102165.89;1698557;82;21063;-81
2022/11/11 08:27:16;;;;;;;17.23;6.90;;;;;;;23.39;45.37;102170.05;1777192;79;21082;-83
2022/11/11 08:29:43;;;;;;;13.13;6.40;;;;;;;23.41;45.40;102172.54;1760744;79;21541;-80
2022/11/11 08:32:10;;;;;;;12.80;6.37;;;;;;;23.41;45.43;102176.14;1719836;81;21069;-84
2022/11/11 08:34:36;;;;;;;17.80;6.37;;;;;;;23.42;45.50;102188.91;1735486;79;21755;-81
2022/11/11 08:37:03;;;;;;;16.77;6.33;;;;;;;23.43;45.58;102190.57;1731559;81;21012;-87
2022/11/11 08:39:29;;;;;;;16.02;6.70;;;;;;;23.42;45.67;102195.86;1772767;79;22269;-85
2022/11/11 08:41:55;;;;;;;16.20;4.95;;;;;;;23.42;45.76;102192.25;1727929;80;21105;-83
2022/11/11 08:44:28;;;;;;;17.00;5.03;;;;;;;23.43;45.84;102194.73;1721557;80;21116;-85
2022/11/11 08:46:55;;;;;;;14.03;5.50;;;;;;;23.44;45.92;102188.06;1725131;81;21094;-84
2022/11/11 08:49:23;;;;;;;12.18;4.05;;;;;;;23.45;46.06;102193.05;1726076;80;21048;-81
2022/11/11 08:51:49;;;;;;;8.60;3.60;;;;;;;23.45;45.98;102200.00;1728382;80;21313;-83
2022/11/11 08:54:18;;;;;;;13.15;3.77;;;;;;;23.43;45.93;102194.73;1735168;81;21090;-83
2022/11/11 08:56:44;;;;;;;18.85;4.15;;;;;;;23.42;45.89;102195.86;1703944;82;21090;-81
2022/11/11 08:59:11;;;;;;;11.88;3.77;;;;;;;23.42;45.89;102199.19;1727663;80;22216;-81
2022/11/11 09:01:37;;;;;;;12.82;3.87;;;;;;;23.42;45.87;102200.02;1725817;80;21068;-82
2022/11/11 09:04:03;;;;;;;8.00;3.40;;;;;;;23.43;45.98;102198.91;1764320;79;22319;-81
2022/11/11 09:06:30;;;;;;;9.40;3.47;;;;;;;23.44;46.06;102207.50;1767863;79;21061;-80
2022/11/11 09:08:56;;;;;;;9.15;3.40;;;;;;;23.45;46.09;102204.16;1764148;79;21029;-82
2022/11/11 09:11:22;;;;;;;13.03;3.47;;;;;;;23.49;46.05;102205.20;1738681;81;21171;-81
2022/11/11 09:13:49;;;;;;;13.15;3.95;;;;;;;23.51;46.07;102211.27;1693783;81;21560;-82
2022/11/11 09:16:15;;;;;;;12.60;3.52;;;;;;;23.52;46.10;102206.81;1700572;81;20967;-82
2022/11/11 09:18:45;;;;;;;15.45;4.17;;;;;;;23.53;46.07;102205.69;1701061;82;21056;-85
2022/11/11 09:21:12;;;;;;;10.38;3.65;;;;;;;23.54;46.11;102203.17;1720131;82;21685;-83
2022/11/11 09:23:45;;;;;;;10.43;3.65;;;;;;;23.55;46.12;102204.00;1721025;81;21154;-78
2022/11/11 09:26:11;;;;;;;11.83;3.67;;;;;;;23.56;46.12;102204.23;1661297;82;21151;-83
2022/11/11 09:28:38;;;;;;;10.78;3.87;;;;;;;23.59;46.09;102207.23;1689687;83;21164;-86
2022/11/11 09:31:10;;;;;;;11.18;4.00;;;;;;;23.59;46.09;102207.23;1703943;81;21068;-85
2022/11/11 09:33:36;;;;;;;13.78;4.12;;;;;;;23.57;46.10;102209.50;1704101;82;21166;-85
2022/11/11 09:36:05;;;;;;;12.47;4.70;;;;;;;23.60;46.14;102208.06;1701455;82;21621;-81
2022/11/11 09:38:31;;;;;;;11.45;4.45;;;;;;;23.60;46.13;102213.05;1703091;82;21092;-80
2022/11/11 09:41:20;;;;;;;11.55;4.50;;;;;;;23.61;46.07;102208.33;1691929;82;20993;-83
2022/11/11 09:43:54;;;;;;;15.28;4.10;;;;;;;23.60;46.03;102203.33;1694425;82;21097;-82
2022/11/11 09:46:36;;;;;;;7.03;2.87;;;;;;;23.61;45.96;102203.59;1664375;83;21089;-79
2022/11/11 09:49:14;;;;;;;11.40;3.85;;;;;;;23.56;45.92;102198.69;1667657;84;21962;-82
2022/11/11 09:51:49;;;;;;;5.95;2.90;;;;;;;23.54;46.31;102200.40;1699985;81;21298;-80
2022/11/11 09:54:38;;;;;;;9.53;2.25;;;;;;;23.53;46.60;102198.74;1700297;82;21528;-79
2022/11/11 09:57:10;;;;;;;7.60;2.02;;;;;;;23.53;46.63;102200.69;1694330;82;21079;-80
2022/11/11 09:59:45;;;;;;;6.92;2.45;;;;;;;23.51;46.69;102197.38;1699439;82;21124;-80
2022/11/11 10:02:40;;;;;;;10.30;1.87;;;;;;;23.51;46.79;102200.98;1696696;82;21360;-80
2022/11/11 10:05:23;;;;;;;7.17;2.02;;;;;;;23.51;46.88;102198.20;1666844;84;21116;-80
2022/11/11 10:07:55;;;;;;;5.53;2.20;;;;;;;23.54;46.93;102195.41;1698160;82;21361;-80
2022/11/11 10:10:49;;;;;;;9.13;2.40;;;;;;;23.57;46.98;102200.34;1701710;82;21112;-79
2022/11/11 10:13:24;;;;;;;10.40;2.30;;;;;;;23.59;46.98;102197.50;1698163;81;21911;-80
2022/11/11 10:16:14;;;;;;;14.13;2.95;;;;;;;23.61;47.01;102202.20;1692646;81;21027;-79
2022/11/11 10:18:54;;;;;;;5.30;2.58;;;;;;;23.63;47.00;102201.35;1680207;84;21033;-80
2022/11/11 10:21:25;;;;;;;10.55;2.25;;;;;;;23.65;46.98;102201.86;1714041;81;21833;-79
2022/11/11 10:23:52;;;;;;;12.63;2.90;;;;;;;23.65;46.88;102206.59;1712058;82;21684;-80
2022/11/11 10:26:20;;;;;;;7.90;2.70;;;;;;;23.65;46.82;102202.42;1705970;82;21063;-80
2022/11/11 10:29:06;;;;;;;10.55;2.52;;;;;;;23.63;46.77;102207.47;1713458;82;21100;-78
2022/11/11 10:31:39;;;;;;;6.78;2.65;;;;;;;23.61;46.70;102202.20;1720445;80;21067;-80
2022/11/11 10:34:11;;;;;;;5.87;2.42;;;;;;;23.59;46.58;102209.21;1719923;81;21290;-81
2022/11/11 10:36:45;;;;;;;4.78;2.58;;;;;;;23.56;46.52;102210.63;1716117;81;21087;-79
2022/11/11 10:39:17;;;;;;;6.72;2.52;;;;;;;23.52;46.43;102206.81;1720406;81;21150;-80
2022/11/11 10:41:46;;;;;;;5.85;2.60;;;;;;;23.50;46.35;102209.08;1718345;81;21445;-80
2022/11/11 10:44:25;;;;;;;13.68;2.22;;;;;;;23.46;46.30;102203.88;1703359;82;21588;-81
2022/11/11 10:47:14;;;;;;;7.20;2.87;;;;;;;23.43;46.21;102205.84;1694081;82;21124;-79
2022/11/11 10:49:52;;;;;;;7.90;2.58;;;;;;;23.36;46.06;102199.83;1720145;80;21672;-80
2022/11/11 10:52:33;;;;;;;4.55;3.27;;;;;;;23.31;46.04;102205.47;1725696;81;21075;-81
2022/11/11 10:55:03;;;;;;;;;;;;;;;23.26;46.08;102203.32;1696365;81;21146;-79
2022/11/11 10:57:37;;;;;;;10.82;3.90;;;;;;;23.20;46.20;102193.71;1718060;80;20782;-82
2022/11/11 11:00:08;;;;;;;7.60;3.08;;;;;;;23.18;46.59;102196.51;1698029;80;22099;-79
2022/11/11 11:02:49;;;;;;;10.23;3.08;;;;;;;23.17;46.75;102194.85;1717593;81;21715;-81
2022/11/11 11:05:23;;;;;;;10.65;2.62;;;;;;;23.14;47.06;102198.24;1671091;83;21119;-80
2022/11/11 11:07:57;;;;;;;12.70;2.72;;;;;;;23.07;47.16;102191.70;1713338;80;21128;-80
2022/11/11 11:10:35;;;;;;;7.25;2.40;;;;;;;23.04;47.21;102194.25;1717529;80;21221;-79
2022/11/11 11:13:37;;;;;;;9.35;2.62;;;;;;;23.02;47.30;102199.27;1712223;81;21158;-79
2022/11/11 11:16:09;;;;;;;7.47;2.60;;;;;;;23.00;47.32;102191.82;1719200;82;21509;-79
2022/11/11 11:18:36;;;;;;;10.05;3.08;;;;;;;22.98;47.33;102196.83;1709250;81;21096;-80
2022/11/11 11:21:06;;;;;;;8.53;2.47;;;;;;;22.97;47.28;102194.61;1688157;82;21071;-79
2022/11/11 11:23:41;;;;;;;4.67;2.27;;;;;;;22.94;47.25;102196.61;1698645;82;21136;-79
2022/11/11 11:26:29;;;;;;;6.45;2.33;;;;;;;22.92;47.23;102202.18;1712106;80;21769;-79
2022/11/11 11:29:21;;;;;;;10.93;2.92;;;;;;;22.90;47.19;102201.67;1699044;82;21553;-79
2022/11/11 11:31:52;;;;;;;13.38;3.10;;;;;;;22.85;47.10;102192.86;1754595;78;21101;-79
2022/11/11 11:34:19;;;;;;;8.23;2.42;;;;;;;22.83;47.01;102191.52;1714738;80;126320;-88
2022/11/11 11:37:01;;;;;;;;;;;;;;;22.81;46.91;102195.14;1700626;83;21064;-88
2022/11/11 11:39:37;;;;;;;7.72;2.60;;;;;;;22.76;46.77;102196.03;1713245;82;20222;-90
2022/11/11 11:42:03;;;;;;;12.10;3.62;;;;;;;22.72;46.76;102192.20;1658543;83;21084;-88
2022/11/11 11:44:40;;;;;;;16.02;3.40;;;;;;;22.68;46.63;102182.80;1699680;82;21108;-89
2022/11/11 11:47:35;;;;;;;8.28;2.62;;;;;;;22.64;46.46;102188.12;1700359;82;21127;-89
2022/11/11 11:50:27;;;;;;;8.68;3.62;;;;;;;22.62;46.35;102183.98;1724245;81;21612;-88
2022/11/11 11:53:34;;;;;;;12.78;4.20;;;;;;;22.58;46.21;102188.47;1714271;83;21085;-91
2022/11/11 11:56:24;;;;;;;14.43;3.40;;;;;;;22.54;46.27;102188.25;1692623;81;21004;-87
2022/11/11 11:59:33;;;;;;;10.58;2.87;;;;;;;22.53;46.43;102190.75;1697720;82;21109;-91
2022/11/11 12:02:23;;;;;;;13.15;3.05;;;;;;;22.49;46.50;102185.54;1700979;82;21268;-89
2022/11/11 12:05:17;;;;;;;9.05;3.17;;;;;;;22.48;46.68;102189.45;1699601;82;21165;-90
2022/11/11 12:08:42;;;;;;;7.90;2.65;;;;;;;22.47;46.72;102189.19;1706072;82;21580;-90
2022/11/11 12:11:51;;;;;;;10.72;2.72;;;;;;;22.45;46.78;102190.03;1703347;82;21085;-88
2022/11/11 12:15:15;;;;;;;10.35;3.62;;;;;;;22.40;46.65;102192.06;1706089;82;21104;-92
2022/11/11 12:17:42;;;;;;;9.75;3.40;;;;;;;22.32;46.52;102181.87;1658822;82;21600;-90
2022/11/11 12:23:42;;;;;;;;;;;;;;;;;;;;;
2022/11/11 12:26:23;;;;;;;;;;;;;;;;;;;;;
2022/11/11 12:28:51;;;;;;;12.60;6.67;;;;;;;22.20;46.52;102177.31;1683091;83;21599;-87
2022/11/11 12:31:29;;;;;;;17.52;6.53;;;;;;;22.19;46.58;102183.97;1713378;82;21149;-89
2022/11/11 12:37:50;;;;;;;10.03;5.95;;;;;;;22.17;46.73;102175.70;1710445;81;21040;-92
2022/11/11 12:40:38;;;;;;;11.88;5.12;;;;;;;22.18;46.80;102176.80;1717617;83;20995;-94
2022/11/11 12:43:20;;;;;;;10.32;5.75;;;;;;;22.16;46.76;102180.97;1702392;82;21164;-90
2022/11/11 12:46:12;;;;;;;13.10;5.50;;;;;;;22.13;46.72;102187.94;1720461;81;21107;-89
2022/11/11 12:49:24;;;;;;;16.45;5.75;;;;;;;22.12;46.83;102185.45;1721508;81;21064;-88
2022/11/11 12:52:25;;;;;;;18.30;8.10;;;;;;;22.10;46.91;102189.92;1726477;80;22718;-92
2022/11/11 12:55:27;;;;;;;16.12;6.22;;;;;;;22.07;46.82;102186.89;1730722;81;21369;-91
2022/11/11 12:58:15;;;;;;;9.78;4.58;;;;;;;22.05;46.87;102192.75;1720489;80;21071;-88